createdAt,value
2023-03-02T00:02:18.470Z,68.91
2023-03-02T00:04:53.587Z,68.95
2023-03-02T00:07:31.830Z,68.92
2023-03-02T00:10:00.765Z,68.93
2023-03-02T00:12:30.604Z,68.91
2023-03-02T00:14:59.349Z,68.91
2023-03-02T00:17:28.415Z,69.01
2023-03-02T00:20:02.795Z,69.15
2023-03-02T00:22:32.904Z,69.21
2023-03-02T00:25:03.405Z,69.27
2023-03-02T00:27:33.504Z,69.41
2023-03-02T00:30:02.995Z,69.52
2023-03-02T00:32:34.024Z,69.62
2023-03-02T00:35:04.363Z,69.75
2023-03-02T00:37:36.449Z,69.86
2023-03-02T00:40:11.376Z,69.93
2023-03-02T00:42:40.283Z,69.97
2023-03-02T00:45:10.530Z,69.91
2023-03-02T00:47:41.507Z,69.95
2023-03-02T00:50:11.606Z,70.03
2023-03-02T00:52:42.711Z,70.11
2023-03-02T00:55:11.625Z,70.21
2023-03-02T00:57:41.025Z,70.25
2023-03-02T01:00:13.334Z,70.16
2023-03-02T01:02:43.945Z,70.11
2023-03-02T01:05:16.577Z,70.08
2023-03-02T01:07:47.636Z,70.02
2023-03-02T01:10:16.443Z,69.88
2023-03-02T01:12:46.624Z,69.72
2023-03-02T01:15:16.586Z,69.60
2023-03-02T01:17:46.578Z,69.60
2023-03-02T01:20:18.324Z,69.41
2023-03-02T01:22:49.596Z,69.47
2023-03-02T01:25:19.213Z,69.53
2023-03-02T01:27:48.403Z,69.51
2023-03-02T01:30:17.429Z,69.36
2023-03-02T01:32:47.916Z,69.38
2023-03-02T01:35:16.536Z,69.44
2023-03-02T01:37:45.525Z,69.31
2023-03-02T01:40:14.975Z,69.12
2023-03-02T01:42:54.610Z,69.20
2023-03-02T01:45:48.320Z,69.14
2023-03-02T01:48:47.978Z,69.00
2023-03-02T01:51:22.188Z,68.96
2023-03-02T01:53:55.626Z,68.89
2023-03-02T01:56:31.534Z,68.83
2023-03-02T01:59:08.128Z,68.78
2023-03-02T02:01:40.368Z,68.86
2023-03-02T02:04:09.106Z,68.82
2023-03-02T02:06:50.786Z,68.83
2023-03-02T02:09:22.750Z,68.78
2023-03-02T02:11:52.325Z,68.80
2023-03-02T02:14:21.685Z,68.85
2023-03-02T02:16:51.067Z,68.92
2023-03-02T02:20:08.110Z,69.03
2023-03-02T02:23:06.885Z,69.15
2023-03-02T02:25:56.719Z,69.20
2023-03-02T02:28:40.001Z,69.20
2023-03-02T02:31:27.163Z,69.24
2023-03-02T02:34:01.441Z,69.21
2023-03-02T02:36:35.681Z,69.21
2023-03-02T02:39:08.589Z,69.19
2023-03-02T02:41:39.412Z,69.22
2023-03-02T02:44:16.733Z,69.20
2023-03-02T02:46:45.568Z,69.18
2023-03-02T02:49:36.418Z,69.23
2023-03-02T02:52:06.413Z,69.29
2023-03-02T02:54:35.289Z,69.34
2023-03-02T02:57:04.823Z,69.33
2023-03-02T02:59:39.856Z,69.32
2023-03-02T03:02:23.816Z,69.35
2023-03-02T03:04:54.788Z,69.44
2023-03-02T03:07:25.136Z,69.53
2023-03-02T03:10:28.743Z,69.53
2023-03-02T03:12:59.448Z,69.58
2023-03-02T03:15:30.478Z,69.60
2023-03-02T03:17:59.329Z,69.60
2023-03-02T03:20:29.155Z,69.55
2023-03-02T03:23:00.111Z,69.53
2023-03-02T03:25:29.338Z,69.54
2023-03-02T03:27:58.494Z,69.62
2023-03-02T03:30:29.664Z,69.58
2023-03-02T03:32:59.033Z,69.60
2023-03-02T03:35:28.876Z,69.60
2023-03-02T03:37:59.411Z,69.61
2023-03-02T03:40:28.838Z,69.58
2023-03-02T03:42:58.153Z,69.72
2023-03-02T03:45:29.405Z,69.87
2023-03-02T03:47:58.575Z,69.91
2023-03-02T03:50:27.339Z,69.96
2023-03-02T03:52:56.750Z,70.05
2023-03-02T03:55:29.177Z,70.11
2023-03-02T03:57:58.402Z,70.21
2023-03-02T04:00:27.796Z,70.35
2023-03-02T04:02:58.627Z,70.41
2023-03-02T04:05:31.654Z,70.45
2023-03-02T04:08:02.518Z,70.56
2023-03-02T04:10:33.250Z,70.75
2023-03-02T04:13:04.623Z,70.82
2023-03-02T04:15:34.712Z,70.94
2023-03-02T04:18:04.334Z,71.02
2023-03-02T04:20:35.732Z,71.17
2023-03-02T04:23:04.621Z,71.22
2023-03-02T04:25:34.637Z,71.30
2023-03-02T04:28:06.228Z,71.36
2023-03-02T04:30:37.071Z,71.42
2023-03-02T04:33:06.136Z,71.50
2023-03-02T04:35:36.287Z,71.59
2023-03-02T04:38:06.448Z,71.64
2023-03-02T04:40:36.038Z,71.70
2023-03-02T04:43:06.832Z,71.78
2023-03-02T04:45:37.331Z,71.83
2023-03-02T04:48:06.976Z,71.86
2023-03-02T04:50:35.782Z,71.98
2023-03-02T04:53:04.497Z,72.13
2023-03-02T04:55:33.458Z,72.21
2023-03-02T04:58:02.223Z,72.32
2023-03-02T05:00:33.678Z,72.44
2023-03-02T05:03:03.869Z,72.57
2023-03-02T05:05:32.781Z,72.70
2023-03-02T05:08:02.462Z,72.92
2023-03-02T05:10:32.774Z,73.07
2023-03-02T05:13:05.839Z,73.14
2023-03-02T05:15:39.910Z,73.28
2023-03-02T05:18:10.277Z,73.31
2023-03-02T05:20:40.374Z,73.47
2023-03-02T05:23:11.912Z,73.52
2023-03-02T05:25:41.071Z,73.61
2023-03-02T05:28:11.320Z,73.72
2023-03-02T05:30:42.093Z,73.81
2023-03-02T05:33:11.026Z,73.89
2023-03-02T05:35:40.197Z,73.95
2023-03-02T05:38:11.488Z,74.02
2023-03-02T05:40:44.831Z,74.12
2023-03-02T05:43:18.081Z,74.07
2023-03-02T05:45:47.153Z,74.09
2023-03-02T05:48:16.131Z,74.20
2023-03-02T05:50:46.069Z,74.21
2023-03-02T05:53:16.115Z,74.28
2023-03-02T05:55:44.712Z,74.28
2023-03-02T05:58:16.978Z,74.27
2023-03-02T06:00:47.625Z,74.33
2023-03-02T06:03:16.613Z,74.40
2023-03-02T06:05:47.537Z,74.62
2023-03-02T06:08:19.050Z,74.72
2023-03-02T06:10:50.743Z,74.82
2023-03-02T06:13:19.781Z,74.96
2023-03-02T06:15:52.397Z,75.08
2023-03-02T06:18:22.550Z,75.22
2023-03-02T06:20:51.872Z,75.38
2023-03-02T06:23:20.914Z,75.54
2023-03-02T06:25:50.169Z,75.55
2023-03-02T06:28:20.198Z,75.56
2023-03-02T06:30:49.547Z,75.56
2023-03-02T06:33:21.196Z,75.61
2023-03-02T06:35:50.495Z,75.61
2023-03-02T06:38:19.475Z,75.57
2023-03-02T06:40:48.841Z,75.53
2023-03-02T06:43:17.613Z,75.50
2023-03-02T06:45:47.283Z,75.41
2023-03-02T06:48:16.110Z,75.33
2023-03-02T06:50:46.569Z,75.27
2023-03-02T06:53:18.556Z,75.18
2023-03-02T06:55:51.214Z,74.93
2023-03-02T06:58:20.608Z,74.76
2023-03-02T07:00:49.670Z,74.65
2023-03-02T07:03:18.641Z,74.37
2023-03-02T07:05:50.242Z,74.12
2023-03-02T07:08:20.652Z,73.92
2023-03-02T07:10:49.601Z,73.80
2023-03-02T07:13:18.463Z,73.60
2023-03-02T07:15:47.702Z,73.44
2023-03-02T07:18:18.996Z,73.33
2023-03-02T07:20:47.764Z,73.15
2023-03-02T07:23:18.286Z,72.74
2023-03-02T07:25:47.105Z,72.37
2023-03-02T07:28:16.837Z,72.14
2023-03-02T07:30:46.782Z,71.96
2023-03-02T07:33:19.733Z,71.84
2023-03-02T07:35:50.193Z,71.49
2023-03-02T07:38:19.408Z,71.25
2023-03-02T07:40:48.272Z,71.09
2023-03-02T07:43:18.962Z,70.87
2023-03-02T07:45:49.161Z,70.61
2023-03-02T07:48:20.005Z,70.35
2023-03-02T07:50:51.908Z,70.18
2023-03-02T07:53:21.073Z,70.00
2023-03-02T07:55:52.943Z,69.74
2023-03-02T07:58:24.064Z,69.67
2023-03-02T08:00:53.157Z,69.63
2023-03-02T08:03:21.906Z,69.46
2023-03-02T08:05:52.559Z,69.35
2023-03-02T08:08:21.800Z,69.41
2023-03-02T08:10:50.652Z,68.88
2023-03-02T08:13:19.384Z,67.37
2023-03-02T08:15:49.905Z,65.27
2023-03-02T08:18:19.078Z,63.12
2023-03-02T08:20:47.841Z,62.41
2023-03-02T08:23:16.557Z,60.07
2023-03-02T08:25:45.378Z,58.99
2023-03-02T08:28:14.722Z,58.02
2023-03-02T08:30:43.539Z,56.66
2023-03-02T08:33:12.758Z,54.92
2023-03-02T08:35:41.794Z,53.74
2023-03-02T08:38:10.745Z,52.98
2023-03-02T08:40:40.836Z,52.33
2023-03-02T08:43:11.452Z,52.65
2023-03-02T08:45:42.502Z,51.85
2023-03-02T08:48:13.036Z,51.11
2023-03-02T08:50:42.205Z,51.07
2023-03-02T08:53:14.411Z,50.46
2023-03-02T08:55:44.209Z,50.76
2023-03-02T08:58:13.444Z,50.73
2023-03-02T09:00:42.937Z,50.98
2023-03-02T09:03:12.230Z,51.25
2023-03-02T09:05:41.471Z,52.01
2023-03-02T09:08:11.295Z,51.75
2023-03-02T09:10:39.958Z,51.74
2023-03-02T09:13:08.838Z,51.75
2023-03-02T09:15:37.859Z,51.67
2023-03-02T09:18:08.214Z,51.51
2023-03-02T09:20:39.274Z,51.93
2023-03-02T09:23:08.108Z,52.13
2023-03-02T09:25:37.098Z,51.94
2023-03-02T09:28:06.300Z,52.05
2023-03-02T09:30:37.934Z,51.99
2023-03-02T09:33:08.509Z,52.03
2023-03-02T09:35:39.092Z,52.16
2023-03-02T09:38:07.850Z,53.41
2023-03-02T09:40:36.881Z,52.78
2023-03-02T09:43:34.779Z,52.65
2023-03-02T09:46:45.618Z,52.27
2023-03-02T09:49:40.876Z,52.24
2023-03-02T09:52:30.175Z,52.03
2023-03-02T09:55:15.091Z,52.21
2023-03-02T09:57:46.766Z,51.45
2023-03-02T10:00:21.005Z,51.39
2023-03-02T10:02:55.413Z,51.53
2023-03-02T10:05:39.322Z,51.34
2023-03-02T10:08:18.147Z,50.52
2023-03-02T10:11:09.771Z,49.76
2023-03-02T10:14:05.671Z,49.55
2023-03-02T10:16:49.829Z,49.40
2023-03-02T10:19:41.224Z,49.31
2023-03-02T10:22:30.121Z,49.35
2023-03-02T10:25:16.093Z,48.96
2023-03-02T10:27:50.122Z,49.11
2023-03-02T10:30:36.715Z,49.03
2023-03-02T10:33:17.949Z,48.91
2023-03-02T10:35:52.026Z,48.93
2023-03-02T10:38:24.359Z,52.86
2023-03-02T10:41:03.294Z,57.96
2023-03-02T10:43:49.468Z,59.17
2023-03-02T10:46:18.406Z,57.81
2023-03-02T10:48:59.226Z,52.95
2023-03-02T10:51:31.126Z,53.12
2023-03-02T10:54:14.608Z,48.94
2023-03-02T10:56:51.684Z,48.73
2023-03-02T10:59:45.114Z,50.33
2023-03-02T11:02:23.144Z,47.93
2023-03-02T11:05:17.751Z,48.08
2023-03-02T11:07:59.574Z,48.71
2023-03-02T11:10:33.865Z,47.24
2023-03-02T11:13:03.065Z,46.89
2023-03-02T11:15:43.208Z,46.35
2023-03-02T11:18:49.224Z,45.99
2023-03-02T11:21:35.918Z,47.10
2023-03-02T11:24:18.988Z,45.33
2023-03-02T11:26:52.587Z,45.05
2023-03-02T11:29:57.331Z,44.85
2023-03-02T11:32:51.460Z,45.56
2023-03-02T11:35:39.178Z,45.35
2023-03-02T11:38:30.068Z,46.09
2023-03-02T11:41:04.736Z,46.25
2023-03-02T11:43:33.471Z,47.68
2023-03-02T11:46:13.921Z,46.67
2023-03-02T11:48:41.814Z,46.29
2023-03-02T11:51:13.547Z,46.09
2023-03-02T11:53:50.136Z,46.61
2023-03-02T11:56:18.959Z,46.79
2023-03-02T11:58:51.864Z,47.29
2023-03-02T12:01:23.904Z,47.39
2023-03-02T12:03:52.862Z,47.27
2023-03-02T12:06:26.618Z,47.69
2023-03-02T12:09:28.588Z,47.38
2023-03-02T12:12:20.998Z,47.46
2023-03-02T12:14:52.098Z,47.42
2023-03-02T12:17:30.531Z,47.61
2023-03-02T12:20:26.258Z,47.84
2023-03-02T12:23:07.060Z,47.89
2023-03-02T12:25:44.416Z,47.86
2023-03-02T12:28:31.471Z,47.01
2023-03-02T12:31:13.625Z,47.08
2023-03-02T12:33:47.535Z,46.80
2023-03-02T12:36:31.025Z,46.79
2023-03-02T12:39:11.672Z,47.10
2023-03-02T12:42:07.314Z,47.45
2023-03-02T12:44:50.760Z,47.60
2023-03-02T12:47:25.936Z,47.78
2023-03-02T12:50:01.205Z,47.98
2023-03-02T12:52:32.839Z,47.80
2023-03-02T12:55:10.196Z,47.92
2023-03-02T12:57:59.795Z,48.07
2023-03-02T13:00:32.558Z,47.88
2023-03-02T13:03:05.433Z,47.49
2023-03-02T13:05:35.756Z,47.55
2023-03-02T13:08:22.796Z,47.61
2023-03-02T13:11:03.040Z,46.89
2023-03-02T13:13:38.505Z,46.93
2023-03-02T13:16:23.014Z,47.78
2023-03-02T13:18:56.532Z,47.48
2023-03-02T13:21:38.626Z,47.45
2023-03-02T13:24:35.744Z,47.31
2023-03-02T13:27:08.115Z,47.35
2023-03-02T13:29:37.512Z,46.49
2023-03-02T13:32:28.064Z,46.49
2023-03-02T13:34:59.124Z,46.09
2023-03-02T13:37:44.717Z,46.25
2023-03-02T13:40:31.553Z,45.98
2023-03-02T13:43:00.374Z,45.63
2023-03-02T13:45:30.565Z,45.17
2023-03-02T13:48:01.005Z,44.22
2023-03-02T13:50:31.656Z,43.77
2023-03-02T13:53:04.918Z,43.91
2023-03-02T13:55:34.419Z,43.91
2023-03-02T13:58:04.570Z,44.20
2023-03-02T14:00:34.898Z,43.92
2023-03-02T14:03:03.802Z,43.69
2023-03-02T14:05:34.734Z,43.27
2023-03-02T14:08:07.011Z,43.28
2023-03-02T14:10:36.424Z,43.08
2023-03-02T14:13:10.157Z,42.94
2023-03-02T14:15:48.957Z,43.17
2023-03-02T14:18:41.847Z,42.58
2023-03-02T14:21:13.978Z,42.70
2023-03-02T14:23:42.868Z,42.59
2023-03-02T14:26:39.446Z,42.31
2023-03-02T14:29:33.075Z,41.87
2023-03-02T14:32:09.079Z,42.35
2023-03-02T14:34:43.365Z,42.30
2023-03-02T14:37:17.704Z,42.47
2023-03-02T14:39:55.510Z,41.88
2023-03-02T14:42:24.573Z,41.80
2023-03-02T14:44:53.635Z,42.25
2023-03-02T14:47:23.957Z,42.62
2023-03-02T14:49:53.328Z,42.47
2023-03-02T14:52:36.122Z,41.97
2023-03-02T14:55:27.762Z,41.59
2023-03-02T14:57:59.810Z,41.96
2023-03-02T15:00:28.334Z,41.91
2023-03-02T15:02:57.203Z,42.00
2023-03-02T15:05:26.195Z,42.36
2023-03-02T15:07:58.782Z,42.29
2023-03-02T15:10:27.909Z,42.60
2023-03-02T15:12:56.961Z,43.16
2023-03-02T15:15:26.936Z,43.54
2023-03-02T15:17:55.571Z,44.17
2023-03-02T15:20:25.833Z,44.26
2023-03-02T15:22:54.969Z,44.60
2023-03-02T15:25:25.482Z,45.22
2023-03-02T15:27:55.841Z,46.52
2023-03-02T15:30:26.867Z,46.28
2023-03-02T15:32:59.320Z,46.46
2023-03-02T15:35:30.129Z,46.67
2023-03-02T15:38:02.246Z,46.89
2023-03-02T15:40:31.633Z,47.43
2023-03-02T15:43:02.745Z,47.90
2023-03-02T15:45:31.851Z,48.03
2023-03-02T15:48:00.819Z,48.29
2023-03-02T15:50:31.170Z,48.51
2023-03-02T15:53:00.474Z,49.37
2023-03-02T15:55:29.067Z,49.45
2023-03-02T15:57:59.793Z,49.67
2023-03-02T16:00:35.169Z,49.95
2023-03-02T16:03:10.373Z,50.22
2023-03-02T16:05:39.505Z,50.39
2023-03-02T16:08:09.193Z,50.69
2023-03-02T16:10:41.805Z,50.92
2023-03-02T16:13:12.828Z,51.13
2023-03-02T16:15:41.827Z,51.34
2023-03-02T16:18:11.200Z,51.54
2023-03-02T16:20:43.135Z,51.76
2023-03-02T16:23:13.016Z,51.92
2023-03-02T16:25:44.418Z,52.23
2023-03-02T16:28:14.057Z,52.41
2023-03-02T16:30:44.567Z,52.64
2023-03-02T16:33:17.009Z,52.99
2023-03-02T16:35:49.250Z,53.16
2023-03-02T16:38:18.335Z,53.62
2023-03-02T16:40:48.996Z,53.76
2023-03-02T16:43:18.780Z,54.02
2023-03-02T16:45:49.747Z,54.50
2023-03-02T16:48:19.503Z,54.88
2023-03-02T16:50:55.901Z,55.28
2023-03-02T16:53:24.914Z,55.72
2023-03-02T16:55:54.212Z,56.04
2023-03-02T16:58:24.176Z,57.48
2023-03-02T17:00:53.498Z,57.00
2023-03-02T17:03:22.610Z,57.17
2023-03-02T17:05:55.089Z,57.28
2023-03-02T17:08:24.800Z,57.53
2023-03-02T17:10:54.642Z,57.79
2023-03-02T17:13:24.944Z,57.94
2023-03-02T17:15:55.156Z,58.16
2023-03-02T17:18:27.494Z,58.40
2023-03-02T17:20:57.708Z,58.67
2023-03-02T17:23:28.398Z,58.87
2023-03-02T17:25:57.388Z,59.09
2023-03-02T17:28:26.209Z,59.40
2023-03-02T17:30:55.979Z,59.73
2023-03-02T17:33:27.221Z,59.91
2023-03-02T17:35:58.410Z,60.21
2023-03-02T17:38:28.285Z,60.47
2023-03-02T17:41:03.251Z,60.69
2023-03-02T17:43:35.412Z,60.93
2023-03-02T17:46:13.844Z,61.11
2023-03-02T17:48:43.540Z,61.27
2023-03-02T17:51:14.078Z,61.38
2023-03-02T17:53:46.957Z,61.49
2023-03-02T17:56:22.407Z,61.62
2023-03-02T17:58:59.963Z,61.79
2023-03-02T18:01:29.374Z,61.94
2023-03-02T18:04:00.016Z,62.28
2023-03-02T18:06:29.221Z,62.48
2023-03-02T18:08:58.725Z,62.61
2023-03-02T18:11:27.397Z,62.81
2023-03-02T18:13:58.260Z,62.96
2023-03-02T18:16:28.891Z,63.08
2023-03-02T18:18:58.347Z,63.30
2023-03-02T18:21:27.689Z,63.44
2023-03-02T18:23:58.031Z,63.79
2023-03-02T18:26:28.576Z,63.91
2023-03-02T18:28:59.090Z,64.15
2023-03-02T18:31:28.456Z,64.29
2023-03-02T18:33:59.134Z,64.40
2023-03-02T18:36:27.847Z,64.54
2023-03-02T18:38:58.311Z,64.77
2023-03-02T18:41:30.174Z,64.98
2023-03-02T18:44:00.788Z,65.13
2023-03-02T18:46:30.868Z,65.34
2023-03-02T18:49:00.824Z,65.51
2023-03-02T18:51:29.934Z,65.63
2023-03-02T18:53:59.693Z,65.72
2023-03-02T18:56:29.085Z,65.75
2023-03-02T18:58:59.073Z,65.87
2023-03-02T19:01:31.559Z,65.99
2023-03-02T19:04:02.008Z,66.14
2023-03-02T19:06:32.561Z,66.17
2023-03-02T19:09:02.114Z,66.39
2023-03-02T19:11:31.666Z,66.46
2023-03-02T19:14:00.446Z,66.54
2023-03-02T19:16:30.760Z,66.59
2023-03-02T19:19:00.149Z,66.69
2023-03-02T19:21:28.593Z,66.84
2023-03-02T19:23:58.460Z,66.88
2023-03-02T19:26:27.245Z,66.94
2023-03-02T19:28:57.271Z,67.06
2023-03-02T19:31:30.572Z,67.17
2023-03-02T19:34:00.116Z,67.30
2023-03-02T19:36:29.256Z,67.40
2023-03-02T19:38:58.734Z,67.48
2023-03-02T19:41:30.481Z,67.55
2023-03-02T19:43:59.263Z,67.70
2023-03-02T19:46:28.532Z,67.89
2023-03-02T19:48:57.414Z,68.10
2023-03-02T19:51:26.164Z,68.22
2023-03-02T19:53:55.457Z,68.35
2023-03-02T19:56:29.290Z,68.49
2023-03-02T19:58:59.854Z,68.65
2023-03-02T20:01:29.989Z,68.76
2023-03-02T20:04:02.223Z,68.98
2023-03-02T20:06:34.214Z,69.16
2023-03-02T20:09:05.332Z,69.27
2023-03-02T20:11:35.642Z,69.42
2023-03-02T20:14:04.976Z,69.49
2023-03-02T20:16:36.120Z,69.54
2023-03-02T20:19:05.813Z,69.66
2023-03-02T20:21:38.026Z,69.78
2023-03-02T20:24:09.886Z,69.83
2023-03-02T20:26:38.887Z,69.90
2023-03-02T20:29:08.292Z,70.01
2023-03-02T20:31:37.894Z,70.09
2023-03-02T20:34:09.322Z,70.16
2023-03-02T20:36:40.007Z,70.22
2023-03-02T20:39:20.548Z,70.36
2023-03-02T20:41:49.514Z,70.44
2023-03-02T20:44:18.226Z,70.54
2023-03-02T20:46:51.250Z,70.70
2023-03-02T20:49:20.948Z,70.78
2023-03-02T20:51:52.883Z,70.86
2023-03-02T20:54:27.116Z,70.90
2023-03-02T20:56:56.177Z,70.98
2023-03-02T20:59:28.997Z,71.01
2023-03-02T21:01:58.147Z,71.05
2023-03-02T21:04:26.906Z,71.07
2023-03-02T21:06:57.954Z,71.11
2023-03-02T21:09:26.822Z,71.17
2023-03-02T21:11:58.907Z,71.20
2023-03-02T21:14:28.138Z,71.23
2023-03-02T21:16:58.379Z,71.30
2023-03-02T21:19:29.062Z,71.34
2023-03-02T21:21:58.362Z,71.36
2023-03-02T21:24:27.195Z,71.38
2023-03-02T21:26:56.041Z,71.39
2023-03-02T21:29:26.382Z,71.54
2023-03-02T21:31:55.195Z,71.65
2023-03-02T21:34:24.278Z,71.67
2023-03-02T21:36:54.357Z,71.74
2023-03-02T21:39:29.769Z,71.83
2023-03-02T21:42:02.166Z,71.83
2023-03-02T21:44:31.162Z,71.85
2023-03-02T21:47:00.032Z,71.91
2023-03-02T21:49:28.834Z,72.12
2023-03-02T21:51:58.094Z,72.22
2023-03-02T21:54:28.326Z,72.21
2023-03-02T21:56:57.305Z,72.23
2023-03-02T21:59:29.300Z,72.30
2023-03-02T22:01:58.015Z,72.32
2023-03-02T22:04:26.862Z,72.39
2023-03-02T22:06:55.471Z,72.48
2023-03-02T22:09:24.867Z,72.50
2023-03-02T22:11:53.956Z,72.53
2023-03-02T22:14:23.273Z,72.60
2023-03-02T22:16:52.089Z,72.59
2023-03-02T22:19:29.667Z,72.61
2023-03-02T22:22:00.244Z,72.67
2023-03-02T22:24:32.253Z,72.72
2023-03-02T22:27:12.583Z,72.71
2023-03-02T22:29:46.453Z,72.79
2023-03-02T22:32:30.551Z,72.84
2023-03-02T22:35:05.302Z,72.90
2023-03-02T22:37:34.339Z,72.92
2023-03-02T22:40:29.973Z,72.96
2023-03-02T22:43:25.503Z,72.91
2023-03-02T22:46:13.314Z,72.81
2023-03-02T22:48:45.248Z,72.78
2023-03-02T22:51:26.926Z,72.76
2023-03-02T22:53:58.410Z,72.76
2023-03-02T22:56:37.264Z,72.85
2023-03-02T22:59:25.791Z,72.84
2023-03-02T23:01:59.231Z,72.87
2023-03-02T23:04:32.223Z,72.89
2023-03-02T23:07:02.468Z,73.06
2023-03-02T23:09:35.010Z,73.17
2023-03-02T23:12:15.313Z,73.23
2023-03-02T23:14:51.379Z,73.22
2023-03-02T23:17:25.261Z,73.29
2023-03-02T23:19:54.073Z,73.13
2023-03-02T23:22:23.048Z,73.22
2023-03-02T23:24:52.196Z,73.53
2023-03-02T23:27:24.736Z,73.72
2023-03-02T23:29:54.013Z,73.77
2023-03-02T23:32:25.026Z,73.86
2023-03-02T23:34:55.112Z,74.12
2023-03-02T23:37:25.552Z,74.29
2023-03-02T23:39:54.414Z,74.40
2023-03-02T23:42:23.707Z,74.44
2023-03-02T23:44:55.069Z,74.46
2023-03-02T23:47:25.623Z,74.44
2023-03-02T23:49:55.265Z,74.44
2023-03-02T23:52:23.876Z,74.42
2023-03-02T23:54:53.573Z,74.38
2023-03-02T23:57:22.291Z,74.38
2023-03-02T23:59:52.580Z,74.36
